Fountain Green, UT (84632)

22:15 MDT le 01 septembre 2014 (GMT -0600)
Carbon County | Change Station
CLOSE
Current Station
Aéroport
Location: Price,
Altitude: 5955 ft
Stations météo à proximité

Alt. 5955 ft 39.61 °N, 110.75 °W | Updated 22 minutes ago

Clear
Ciel dégagé
63 ° F
Paraît 63 ° F
N
7
Vent Variable Vent de Nord

Aujourd'hui
Haut(e) -- | Bas -- ° F
--% Risque de précip.
Hier
Haut(e) -- | Bas -- ° F
Precip. -- pouce
6:55 AM 7:57 PM
Lune montante, 47% visible
Pression 29.96 pouce
Visibilité 10.0 Miles terrestres
Nuages Ciel dégagé
Point de rosée 33 ° F
Humidité 33%
Précipitations 0.00 pouce
Profondeur de la couche neigeuse Non disponible.
UV 0 sur 12
Pollen 8.90 sur 12
Qualité de l'air Non disponible.
Flu Activity Non disponible.
METAR KPUC 020353Z AUTO 01006KT 10SM CLR 17/01 A3013 RMK AO2 SLP145 T01720006

More Conditions Fewer Conditions

Pression 29.96 pouce
Visibilité 10.0 Miles terrestres
Nuages Ciel dégagé
Point de rosée 33 ° F
Humidité 33%
Précipitations 0.00 pouce
Profondeur de la couche neigeuse Non disponible.
UV 0 sur 12
Pollen 8.90 sur 12
Qualité de l'air Non disponible.
Flu Activity Non disponible.
METAR KPUC 020353Z AUTO 01006KT 10SM CLR 17/01 A3013 RMK AO2 SLP145 T01720006

More Conditions Fewer Conditions

10-Day Weather Forecast

Almanac

Astronomie

Sep. 01, 2014 Lever Coucher
Temps réel 06:55 MDT 19:57 MDT
Crépuscule civil 06:27 MDT 20:25 MDT
Crépuscule nautique 05:54 MDT 20:57 MDT
Crépuscule astronomique 05:20 MDT 21:31 MDT
Lune 13:42 MDT (9/1) Pas de coucher de lune
Durée de lumière visible 13h 57m
Longueur du jour
13h 02m
Tomorrow will be 2m 28s shorter.
Lune montante, 47% of the Moon is Illuminated
Sep 2
Lune montante
Sep 2
Premier quartier
Sep 8
Pleine lune
Sep 15
Dernier quartier
Sep 24
Nouveau

Extrêmes aujourd'hui

State Highs State Lows

Community

WunderPhotos

Upload Photos

1,749,560 Photos téléchargées !

WunderBlogs® & News

Nearby

Épaisseur de neige

Station Depth Altitude
Clear Creek #2 0 in 8300 ft
Strawberry Divide 0 in 8400 ft
Cascade Mountain 1 in 7768 ft
Black Flat-U.M. Creek 0 in 9400 ft
Rocky Basin-Settlement 0 in 8900 ft

Activité sismique

Ville Distance Mag. Time & Date
No recent earthquake activity has been reported nearby.
Minimum magnitude displayed is 2.5.

Températures des eaux côtières

Lieu Température
Aucun rapport de station

Stations météo à proximité